To NAV CANADA Home Page Login to a new session Search on AWWS site Feedback and Comments Disclaimer Vers la page française équivalente Tips FAQ What's new on the site To the Forecasts and Observations / NOTAM section To "File a Flight Plan" website Publications and other links Update of the User's profile FIC Telephone Numbers My Weather Data Folder Route Weather Data Regional Weather Data Local Weather Data To the Forecasts and Observations / NOTAM section
Request Generated 04/16/2014 at 18:56:45 UTC . Weather information available at that time is displayed.

METAR/TAF

TORONTO/LESTER B. PEARSON INTL/ON    

METAR CYYZ 161800Z 26007KT 15SM SCT047 BKN055 02/M07 A3048 RMK CU4SC2
SLP331=
METAR CYYZ 161700Z 29006G16KT 15SM BKN046 02/M09 A3049 RMK CU6
SLP332=
METAR CYYZ 161600Z 27008KT 15SM BKN048 00/M10 A3048 RMK CU6 SLP330=

TAF CYYZ 161738Z 1618/1724 29010KT P6SM BKN050
FM162100 14007KT P6SM SCT050
BECMG 1700/1702 VRB03KT
FM170600 08007KT P6SM SCT150
BECMG 1714/1716 10010G20KT
RMK NXT FCST BY 162100Z=
Your time UTC time
Weather data provided by Environment Canada and NAV CANADA